Time,TemperatureF,DewpointF,PressureIn,WindDirection,WindDirectionDegrees,WindSpeedMPH,WindSpeedGustMPH,Humidity,HourlyPrecipIn,Conditions,Clouds,dailyrainin,SolarRadiationWatts/m^2,SoftwareType,DateUTC
2013-03-02 00:01:00,21.0,15.0,-100.00,NNW,347,5.0,11.0,76,0.00,,,0.00,0.000000,,2013-03-02 07:01:00,
2013-03-02 00:32:00,21.0,16.0,-100.00,NNW,347,3.0,8.0,79,0.00,,,0.00,0.000000,,2013-03-02 07:32:00,
2013-03-02 00:42:00,21.0,16.0,-100.00,NNW,347,3.0,8.0,79,0.00,,,0.00,0.000000,,2013-03-02 07:42:00,
2013-03-02 00:52:00,21.0,16.0,-100.00,NNW,347,3.0,8.0,79,0.00,,,0.00,0.000000,,2013-03-02 07:52:00,
2013-03-02 01:01:00,21.0,16.0,-100.00,NNW,347,3.0,8.0,79,0.00,,,0.00,0.000000,,2013-03-02 08:01:00,
2013-03-02 01:32:00,20.0,15.0,-100.00,NNW,339,4.0,8.0,82,0.00,,,0.00,0.000000,,2013-03-02 08:32:00,
2013-03-02 01:43:00,20.0,15.0,-100.00,NNW,339,4.0,8.0,82,0.00,,,0.00,0.000000,,2013-03-02 08:43:00,
2013-03-02 01:52:00,20.0,15.0,-100.00,NNW,339,4.0,8.0,82,0.00,,,0.00,0.000000,,2013-03-02 08:52:00,
2013-03-02 02:01:00,20.0,15.0,-100.00,NNW,339,4.0,8.0,82,0.00,,,0.00,0.000000,,2013-03-02 09:01:00,
2013-03-02 02:32:00,21.0,16.0,-100.00,North,358,8.0,13.0,80,0.00,,,0.00,0.000000,,2013-03-02 09:32:00,
2013-03-02 02:42:00,21.0,16.0,-100.00,North,358,8.0,13.0,80,0.00,,,0.00,0.000000,,2013-03-02 09:42:00,
2013-03-02 02:52:00,21.0,16.0,-100.00,North,358,8.0,13.0,80,0.00,,,0.00,0.000000,,2013-03-02 09:52:00,
2013-03-02 03:01:00,21.0,16.0,-100.00,North,358,8.0,13.0,80,0.00,,,0.00,0.000000,,2013-03-02 10:01:00,
2013-03-02 03:32:00,20.0,15.0,-100.00,North,4,6.0,13.0,79,0.00,,,0.00,0.000000,,2013-03-02 10:32:00,
2013-03-02 03:43:00,20.0,15.0,-100.00,North,4,6.0,13.0,79,0.00,,,0.00,0.000000,,2013-03-02 10:43:00,
2013-03-02 03:52:00,20.0,15.0,-100.00,North,4,6.0,13.0,79,0.00,,,0.00,0.000000,,2013-03-02 10:52:00,
2013-03-02 04:01:00,20.0,15.0,-100.00,North,4,6.0,13.0,79,0.00,,,0.00,0.000000,,2013-03-02 11:01:00,
2013-03-02 04:32:00,20.0,15.0,-100.00,North,8,6.0,12.0,80,0.00,,,0.00,0.000000,,2013-03-02 11:32:00,
2013-03-02 04:42:00,20.0,15.0,-100.00,North,8,6.0,12.0,80,0.00,,,0.00,0.000000,,2013-03-02 11:42:00,
2013-03-02 04:52:00,20.0,15.0,-100.00,North,8,6.0,12.0,80,0.00,,,0.00,0.000000,,2013-03-02 11:52:00,
2013-03-02 05:02:00,20.0,15.0,-100.00,North,8,6.0,12.0,80,0.00,,,0.00,0.000000,,2013-03-02 12:02:00,
2013-03-02 05:33:00,21.0,15.0,-100.00,North,11,3.0,10.0,76,0.00,,,0.00,0.000000,,2013-03-02 12:33:00,
2013-03-02 05:43:00,21.0,15.0,-100.00,North,11,3.0,10.0,76,0.00,,,0.00,0.000000,,2013-03-02 12:43:00,
2013-03-02 05:53:00,21.0,15.0,-100.00,North,11,3.0,10.0,76,0.00,,,0.00,0.000000,,2013-03-02 12:53:00,
2013-03-02 06:01:00,21.0,15.0,-100.00,North,11,3.0,10.0,76,0.00,,,0.00,0.000000,,2013-03-02 13:01:00,
2013-03-02 06:32:00,23.0,15.0,-100.00,North,4,6.0,21.0,70,0.00,,,0.00,0.000000,,2013-03-02 13:32:00,
2013-03-02 06:42:00,23.0,15.0,-100.00,North,4,6.0,21.0,70,0.00,,,0.00,0.000000,,2013-03-02 13:42:00,
2013-03-02 06:52:00,23.0,15.0,-100.00,North,4,6.0,21.0,70,0.00,,,0.00,0.000000,,2013-03-02 13:52:00,
2013-03-02 07:01:00,23.0,15.0,-100.00,North,4,6.0,21.0,70,0.00,,,0.00,0.000000,,2013-03-02 14:01:00,
2013-03-02 07:32:00,22.0,15.0,-100.00,North,350,3.0,11.0,73,0.00,,,0.00,14.000000,,2013-03-02 14:32:00,
2013-03-02 07:42:00,22.0,15.0,-100.00,North,350,3.0,11.0,73,0.00,,,0.00,14.000000,,2013-03-02 14:42:00,
2013-03-02 07:52:00,22.0,15.0,-100.00,North,350,3.0,11.0,73,0.00,,,0.00,14.000000,,2013-03-02 14:52:00,
2013-03-02 08:02:00,22.0,15.0,-100.00,North,350,3.0,11.0,73,0.00,,,0.00,14.000000,,2013-03-02 15:02:00,
2013-03-02 08:32:00,29.0,16.0,-100.00,South,187,3.0,9.0,59,0.00,,,0.00,179.000000,,2013-03-02 15:32:00,
2013-03-02 08:42:00,29.0,16.0,-100.00,South,187,3.0,9.0,59,0.00,,,0.00,179.000000,,2013-03-02 15:42:00,
2013-03-02 08:52:00,29.0,16.0,-100.00,South,187,3.0,9.0,59,0.00,,,0.00,179.000000,,2013-03-02 15:52:00,
2013-03-02 09:01:00,29.0,16.0,-100.00,South,187,3.0,9.0,59,0.00,,,0.00,179.000000,,2013-03-02 16:01:00,
2013-03-02 09:32:00,32.0,17.0,-100.00,NNE,23,5.0,13.0,54,0.00,,,0.00,409.000000,,2013-03-02 16:32:00,
2013-03-02 09:42:00,32.0,17.0,-100.00,NNE,23,5.0,13.0,54,0.00,,,0.00,409.000000,,2013-03-02 16:42:00,
2013-03-02 09:52:00,32.0,17.0,-100.00,NNE,23,5.0,13.0,54,0.00,,,0.00,409.000000,,2013-03-02 16:52:00,
2013-03-02 10:01:00,32.0,17.0,-100.00,NNE,23,5.0,13.0,54,0.00,,,0.00,409.000000,,2013-03-02 17:01:00,
2013-03-02 10:32:00,36.0,17.0,-100.00,NNE,14,8.0,19.0,46,0.00,,,0.00,650.000000,,2013-03-02 17:32:00,
2013-03-02 10:42:00,36.0,17.0,-100.00,NNE,14,8.0,19.0,46,0.00,,,0.00,650.000000,,2013-03-02 17:42:00,
2013-03-02 10:52:00,36.0,17.0,-100.00,NNE,14,8.0,19.0,46,0.00,,,0.00,650.000000,,2013-03-02 17:52:00,
2013-03-02 11:02:00,36.0,17.0,-100.00,NNE,14,8.0,19.0,46,0.00,,,0.00,650.000000,,2013-03-02 18:02:00,
2013-03-02 11:32:00,40.0,18.0,-100.00,NNE,21,9.0,20.0,40,0.00,,,0.00,817.000000,,2013-03-02 18:32:00,
2013-03-02 11:42:00,40.0,18.0,-100.00,NNE,21,9.0,20.0,40,0.00,,,0.00,817.000000,,2013-03-02 18:42:00,
2013-03-02 11:52:00,40.0,18.0,-100.00,NNE,21,9.0,20.0,40,0.00,,,0.00,817.000000,,2013-03-02 18:52:00,
2013-03-02 12:01:00,40.0,18.0,-100.00,NNE,21,9.0,20.0,40,0.00,,,0.00,817.000000,,2013-03-02 19:01:00,
2013-03-02 12:32:00,41.0,17.0,-100.00,North,8,13.0,24.0,37,0.00,,,0.00,877.000000,,2013-03-02 19:32:00,
2013-03-02 12:42:00,41.0,17.0,-100.00,North,8,13.0,24.0,37,0.00,,,0.00,877.000000,,2013-03-02 19:42:00,
2013-03-02 12:52:00,41.0,17.0,-100.00,North,8,13.0,24.0,37,0.00,,,0.00,877.000000,,2013-03-02 19:52:00,
2013-03-02 13:01:00,41.0,17.0,-100.00,North,8,13.0,24.0,37,0.00,,,0.00,877.000000,,2013-03-02 20:01:00,
2013-03-02 13:32:00,43.0,19.0,-100.00,North,9,11.0,25.0,37,0.00,,,0.00,906.000000,,2013-03-02 20:32:00,
2013-03-02 13:42:00,43.0,19.0,-100.00,North,9,11.0,25.0,37,0.00,,,0.00,906.000000,,2013-03-02 20:42:00,
2013-03-02 13:52:00,43.0,19.0,-100.00,North,9,11.0,25.0,37,0.00,,,0.00,906.000000,,2013-03-02 20:52:00,
2013-03-02 14:02:00,43.0,19.0,-100.00,North,9,11.0,25.0,37,0.00,,,0.00,906.000000,,2013-03-02 21:02:00,
2013-03-02 14:32:00,44.0,18.0,-100.00,NNE,13,10.0,22.0,35,0.00,,,0.00,840.000000,,2013-03-02 21:32:00,
2013-03-02 14:42:00,44.0,18.0,-100.00,NNE,13,10.0,22.0,35,0.00,,,0.00,840.000000,,2013-03-02 21:42:00,
2013-03-02 14:52:00,44.0,18.0,-100.00,NNE,13,10.0,22.0,35,0.00,,,0.00,840.000000,,2013-03-02 21:52:00,
2013-03-02 15:02:00,44.0,18.0,-100.00,NNE,13,10.0,22.0,35,0.00,,,0.00,840.000000,,2013-03-02 22:02:00,
2013-03-02 15:32:00,44.0,14.0,-100.00,NNE,18,9.0,19.0,29,0.00,,,0.00,711.000000,,2013-03-02 22:32:00,
2013-03-02 15:42:00,44.0,14.0,-100.00,NNE,18,9.0,19.0,29,0.00,,,0.00,711.000000,,2013-03-02 22:42:00,
2013-03-02 15:52:00,44.0,14.0,-100.00,NNE,18,9.0,19.0,29,0.00,,,0.00,711.000000,,2013-03-02 22:52:00,
2013-03-02 16:01:00,44.0,14.0,-100.00,NNE,18,9.0,19.0,29,0.00,,,0.00,711.000000,,2013-03-02 23:01:00,
2013-03-02 16:32:00,42.0,14.0,-100.00,NNE,20,10.0,20.0,31,0.00,,,0.00,513.000000,,2013-03-02 23:32:00,
2013-03-02 16:42:00,42.0,14.0,-100.00,NNE,20,10.0,20.0,31,0.00,,,0.00,513.000000,,2013-03-02 23:42:00,
2013-03-02 16:52:00,42.0,14.0,-100.00,NNE,20,10.0,20.0,31,0.00,,,0.00,513.000000,,2013-03-02 23:52:00,
2013-03-02 17:02:00,42.0,14.0,-100.00,NNE,20,10.0,20.0,31,0.00,,,0.00,513.000000,,2013-03-03 00:02:00,
2013-03-02 17:32:00,39.0,14.0,-100.00,NNE,16,5.0,15.0,36,0.00,,,0.00,267.000000,,2013-03-03 00:32:00,
2013-03-02 17:42:00,39.0,14.0,-100.00,NNE,16,5.0,15.0,36,0.00,,,0.00,267.000000,,2013-03-03 00:42:00,
2013-03-02 17:52:00,39.0,14.0,-100.00,NNE,16,5.0,15.0,36,0.00,,,0.00,267.000000,,2013-03-03 00:52:00,
2013-03-02 18:01:00,39.0,14.0,-100.00,NNE,16,5.0,15.0,36,0.00,,,0.00,267.000000,,2013-03-03 01:01:00,
2013-03-02 18:32:00,35.0,15.0,-100.00,North,357,6.0,11.0,43,0.00,,,0.00,20.000000,,2013-03-03 01:32:00,
2013-03-02 18:42:00,35.0,15.0,-100.00,North,357,6.0,11.0,43,0.00,,,0.00,20.000000,,2013-03-03 01:42:00,
2013-03-02 18:52:00,35.0,15.0,-100.00,North,357,6.0,11.0,43,0.00,,,0.00,20.000000,,2013-03-03 01:52:00,
2013-03-02 19:01:00,35.0,15.0,-100.00,North,357,6.0,11.0,43,0.00,,,0.00,20.000000,,2013-03-03 02:01:00,
2013-03-02 19:32:00,32.0,14.0,-100.00,NNW,342,4.0,10.0,47,0.00,,,0.00,0.000000,,2013-03-03 02:32:00,
2013-03-02 19:42:00,32.0,14.0,-100.00,NNW,342,4.0,10.0,47,0.00,,,0.00,0.000000,,2013-03-03 02:42:00,
2013-03-02 19:52:00,32.0,14.0,-100.00,NNW,342,4.0,10.0,47,0.00,,,0.00,0.000000,,2013-03-03 02:52:00,
2013-03-02 20:01:00,32.0,14.0,-100.00,NNW,342,4.0,10.0,47,0.00,,,0.00,0.000000,,2013-03-03 03:01:00,
2013-03-02 20:32:00,31.0,13.0,-100.00,NW,326,4.0,12.0,46,0.00,,,0.00,0.000000,,2013-03-03 03:32:00,
2013-03-02 20:42:00,31.0,13.0,-100.00,NW,326,4.0,12.0,46,0.00,,,0.00,0.000000,,2013-03-03 03:42:00,
2013-03-02 20:52:00,31.0,13.0,-100.00,NW,326,4.0,12.0,46,0.00,,,0.00,0.000000,,2013-03-03 03:52:00,
2013-03-02 21:01:00,31.0,13.0,-100.00,NW,326,4.0,12.0,46,0.00,,,0.00,0.000000,,2013-03-03 04:01:00,
2013-03-02 21:32:00,28.0,14.0,-100.00,NW,320,4.0,8.0,54,0.00,,,0.00,0.000000,,2013-03-03 04:32:00,
2013-03-02 21:42:00,28.0,14.0,-100.00,NW,320,4.0,8.0,54,0.00,,,0.00,0.000000,,2013-03-03 04:42:00,
2013-03-02 21:52:00,28.0,14.0,-100.00,NW,320,4.0,8.0,54,0.00,,,0.00,0.000000,,2013-03-03 04:52:00,
2013-03-02 22:02:00,28.0,14.0,-100.00,NW,320,4.0,8.0,54,0.00,,,0.00,0.000000,,2013-03-03 05:02:00,
2013-03-02 22:32:00,27.0,13.0,-100.00,NNW,328,3.0,7.0,56,0.00,,,0.00,0.000000,,2013-03-03 05:32:00,
2013-03-02 22:42:00,27.0,13.0,-100.00,NNW,328,3.0,7.0,56,0.00,,,0.00,0.000000,,2013-03-03 05:42:00,
2013-03-02 22:52:00,27.0,13.0,-100.00,NNW,328,3.0,7.0,56,0.00,,,0.00,0.000000,,2013-03-03 05:52:00,
2013-03-02 23:02:00,27.0,13.0,-100.00,NNW,328,3.0,7.0,56,0.00,,,0.00,0.000000,,2013-03-03 06:02:00,
2013-03-02 23:32:00,24.0,12.0,-100.00,NNW,333,2.0,5.0,60,0.00,,,0.00,0.000000,,2013-03-03 06:32:00,
2013-03-02 23:42:00,24.0,12.0,-100.00,NNW,333,2.0,5.0,60,0.00,,,0.00,0.000000,,2013-03-03 06:42:00,
2013-03-02 23:52:00,24.0,12.0,-100.00,NNW,333,2.0,5.0,60,0.00,,,0.00,0.000000,,2013-03-03 06:52:00,